sensor_id;sensor_type;location;lat;lon;timestamp;pressure;altitude;pressure_sealevel;temperature
42197;BMP280;27866;48.146;17.098;2022-11-20T00:01:04;99367.47;;;6.48
42197;BMP280;27866;48.146;17.098;2022-11-20T00:05:15;99353.53;;;6.38
42197;BMP280;27866;48.146;17.098;2022-11-20T00:09:26;99344.00;;;6.25
42197;BMP280;27866;48.146;17.098;2022-11-20T00:13:38;99344.06;;;6.10
42197;BMP280;27866;48.146;17.098;2022-11-20T00:17:49;99348.78;;;6.18
42197;BMP280;27866;48.146;17.098;2022-11-20T00:22:00;99354.06;;;6.43
42197;BMP280;27866;48.146;17.098;2022-11-20T00:26:14;99345.66;;;6.55
42197;BMP280;27866;48.146;17.098;2022-11-20T00:30:26;99325.78;;;6.84
42197;BMP280;27866;48.146;17.098;2022-11-20T00:34:37;99330.22;;;6.95
42197;BMP280;27866;48.146;17.098;2022-11-20T00:38:55;99327.72;;;7.08
42197;BMP280;27866;48.146;17.098;2022-11-20T00:43:07;99346.13;;;7.02
42197;BMP280;27866;48.146;17.098;2022-11-20T00:47:18;99347.13;;;6.99
42197;BMP280;27866;48.146;17.098;2022-11-20T00:51:29;99348.16;;;6.97
42197;BMP280;27866;48.146;17.098;2022-11-20T00:55:40;99346.47;;;7.09
42197;BMP280;27866;48.146;17.098;2022-11-20T00:59:51;99330.47;;;7.18
42197;BMP280;27866;48.146;17.098;2022-11-20T01:04:03;99328.38;;;7.11
42197;BMP280;27866;48.146;17.098;2022-11-20T01:08:14;99331.66;;;7.13
42197;BMP280;27866;48.146;17.098;2022-11-20T01:12:25;99335.72;;;7.17
42197;BMP280;27866;48.146;17.098;2022-11-20T01:16:40;99337.56;;;7.15
42197;BMP280;27866;48.146;17.098;2022-11-20T01:20:51;99349.03;;;7.23
42197;BMP280;27866;48.146;17.098;2022-11-20T01:25:03;99345.63;;;7.23
42197;BMP280;27866;48.146;17.098;2022-11-20T01:29:21;99357.97;;;7.18
42197;BMP280;27866;48.146;17.098;2022-11-20T01:33:32;99362.03;;;7.08
42197;BMP280;27866;48.146;17.098;2022-11-20T01:37:43;99357.78;;;7.07
42197;BMP280;27866;48.146;17.098;2022-11-20T01:41:55;99357.31;;;7.14
42197;BMP280;27866;48.146;17.098;2022-11-20T01:46:27;99358.88;;;7.17
42197;BMP280;27866;48.146;17.098;2022-11-20T01:50:38;99368.53;;;7.27
42197;BMP280;27866;48.146;17.098;2022-11-20T01:54:59;99361.81;;;7.24
42197;BMP280;27866;48.146;17.098;2022-11-20T01:59:16;99368.06;;;7.21
42197;BMP280;27866;48.146;17.098;2022-11-20T02:03:28;99362.44;;;7.28
42197;BMP280;27866;48.146;17.098;2022-11-20T02:07:40;99374.69;;;7.38
42197;BMP280;27866;48.146;17.098;2022-11-20T02:11:52;99368.16;;;7.33
42197;BMP280;27866;48.146;17.098;2022-11-20T02:16:04;99371.00;;;7.28
42197;BMP280;27866;48.146;17.098;2022-11-20T02:20:16;99374.69;;;7.24
42197;BMP280;27866;48.146;17.098;2022-11-20T02:24:27;99366.59;;;7.30
42197;BMP280;27866;48.146;17.098;2022-11-20T02:28:39;99361.22;;;7.47
42197;BMP280;27866;48.146;17.098;2022-11-20T02:32:50;99379.72;;;7.39
42197;BMP280;27866;48.146;17.098;2022-11-20T02:37:01;99374.41;;;7.29
42197;BMP280;27866;48.146;17.098;2022-11-20T02:41:12;99357.56;;;7.23
42197;BMP280;27866;48.146;17.098;2022-11-20T02:45:24;99355.56;;;7.28
42197;BMP280;27866;48.146;17.098;2022-11-20T02:49:36;99354.47;;;7.19
42197;BMP280;27866;48.146;17.098;2022-11-20T02:53:47;99325.06;;;7.09
42197;BMP280;27866;48.146;17.098;2022-11-20T02:57:58;99322.66;;;7.20
42197;BMP280;27866;48.146;17.098;2022-11-20T03:02:09;99317.31;;;7.23
42197;BMP280;27866;48.146;17.098;2022-11-20T03:06:20;99322.81;;;7.30
42197;BMP280;27866;48.146;17.098;2022-11-20T03:10:31;99315.63;;;7.35
42197;BMP280;27866;48.146;17.098;2022-11-20T03:14:43;99324.28;;;7.34
42197;BMP280;27866;48.146;17.098;2022-11-20T03:18:54;99334.59;;;7.21
42197;BMP280;27866;48.146;17.098;2022-11-20T03:23:05;99339.56;;;7.23
42197;BMP280;27866;48.146;17.098;2022-11-20T03:27:16;99334.69;;;7.19
42197;BMP280;27866;48.146;17.098;2022-11-20T03:31:33;99333.50;;;7.11
42197;BMP280;27866;48.146;17.098;2022-11-20T03:35:44;99336.34;;;7.20
42197;BMP280;27866;48.146;17.098;2022-11-20T03:39:56;99336.53;;;7.17
42197;BMP280;27866;48.146;17.098;2022-11-20T03:44:09;99323.41;;;7.22
42197;BMP280;27866;48.146;17.098;2022-11-20T03:48:21;99310.16;;;7.14
42197;BMP280;27866;48.146;17.098;2022-11-20T03:52:32;99294.03;;;7.24
42197;BMP280;27866;48.146;17.098;2022-11-20T03:56:43;99294.28;;;7.33
42197;BMP280;27866;48.146;17.098;2022-11-20T04:00:54;99294.34;;;7.20
42197;BMP280;27866;48.146;17.098;2022-11-20T04:05:06;99297.66;;;7.22
42197;BMP280;27866;48.146;17.098;2022-11-20T04:09:17;99288.25;;;7.21
42197;BMP280;27866;48.146;17.098;2022-11-20T04:13:28;99296.75;;;7.09
42197;BMP280;27866;48.146;17.098;2022-11-20T04:17:39;99299.16;;;7.12
42197;BMP280;27866;48.146;17.098;2022-11-20T04:21:50;99269.50;;;7.19
42197;BMP280;27866;48.146;17.098;2022-11-20T04:26:10;99269.66;;;7.29
42197;BMP280;27866;48.146;17.098;2022-11-20T04:30:22;99267.63;;;7.34
42197;BMP280;27866;48.146;17.098;2022-11-20T04:34:33;99271.06;;;7.47
42197;BMP280;27866;48.146;17.098;2022-11-20T04:38:45;99277.16;;;7.46
42197;BMP280;27866;48.146;17.098;2022-11-20T04:42:56;99268.16;;;7.39
42197;BMP280;27866;48.146;17.098;2022-11-20T04:47:07;99269.50;;;7.44
42197;BMP280;27866;48.146;17.098;2022-11-20T04:51:18;99260.25;;;7.42
42197;BMP280;27866;48.146;17.098;2022-11-20T04:55:30;99254.94;;;7.31
42197;BMP280;27866;48.146;17.098;2022-11-20T04:59:41;99256.03;;;7.27
42197;BMP280;27866;48.146;17.098;2022-11-20T05:03:52;99255.66;;;7.33
42197;BMP280;27866;48.146;17.098;2022-11-20T05:08:04;99244.41;;;7.48
42197;BMP280;27866;48.146;17.098;2022-11-20T05:12:15;99251.41;;;7.46
42197;BMP280;27866;48.146;17.098;2022-11-20T05:16:26;99242.50;;;7.38
42197;BMP280;27866;48.146;17.098;2022-11-20T05:20:37;99237.97;;;7.41
42197;BMP280;27866;48.146;17.098;2022-11-20T05:24:48;99252.13;;;7.48
42197;BMP280;27866;48.146;17.098;2022-11-20T05:28:59;99246.66;;;7.40
42197;BMP280;27866;48.146;17.098;2022-11-20T05:33:10;99236.34;;;7.40
42197;BMP280;27866;48.146;17.098;2022-11-20T05:37:21;99240.16;;;7.47
42197;BMP280;27866;48.146;17.098;2022-11-20T05:41:33;99257.19;;;7.49
42197;BMP280;27866;48.146;17.098;2022-11-20T05:45:54;99256.13;;;7.39
42197;BMP280;27866;48.146;17.098;2022-11-20T05:50:06;99269.44;;;7.46
42197;BMP280;27866;48.146;17.098;2022-11-20T05:54:17;99272.19;;;7.43
42197;BMP280;27866;48.146;17.098;2022-11-20T05:58:29;99269.78;;;7.53
42197;BMP280;27866;48.146;17.098;2022-11-20T06:02:41;99263.59;;;7.56
42197;BMP280;27866;48.146;17.098;2022-11-20T06:06:52;99267.81;;;7.57
42197;BMP280;27866;48.146;17.098;2022-11-20T06:11:09;99266.66;;;7.49
42197;BMP280;27866;48.146;17.098;2022-11-20T06:15:20;99274.94;;;7.53
42197;BMP280;27866;48.146;17.098;2022-11-20T06:19:32;99283.91;;;7.60
42197;BMP280;27866;48.146;17.098;2022-11-20T06:23:44;99287.72;;;7.55
42197;BMP280;27866;48.146;17.098;2022-11-20T06:27:55;99282.78;;;7.64
42197;BMP280;27866;48.146;17.098;2022-11-20T06:32:06;99300.00;;;7.64
42197;BMP280;27866;48.146;17.098;2022-11-20T06:36:19;99300.47;;;7.56
42197;BMP280;27866;48.146;17.098;2022-11-20T06:40:31;99303.34;;;7.52
42197;BMP280;27866;48.146;17.098;2022-11-20T06:44:42;99311.00;;;7.53
42197;BMP280;27866;48.146;17.098;2022-11-20T06:48:53;99316.44;;;7.49
42197;BMP280;27866;48.146;17.098;2022-11-20T06:53:05;99317.09;;;7.39
42197;BMP280;27866;48.146;17.098;2022-11-20T06:57:16;99322.94;;;7.54
42197;BMP280;27866;48.146;17.098;2022-11-20T07:01:28;99329.38;;;7.61
42197;BMP280;27866;48.146;17.098;2022-11-20T07:05:39;99327.09;;;7.69
42197;BMP280;27866;48.146;17.098;2022-11-20T07:09:51;99343.84;;;7.76
42197;BMP280;27866;48.146;17.098;2022-11-20T07:14:03;99340.06;;;7.55
42197;BMP280;27866;48.146;17.098;2022-11-20T07:18:15;99337.56;;;7.54
42197;BMP280;27866;48.146;17.098;2022-11-20T07:22:26;99342.81;;;7.52
42197;BMP280;27866;48.146;17.098;2022-11-20T07:26:37;99348.00;;;7.39
42197;BMP280;27866;48.146;17.098;2022-11-20T07:30:53;99350.41;;;7.28
42197;BMP280;27866;48.146;17.098;2022-11-20T07:35:04;99355.56;;;7.15
42197;BMP280;27866;48.146;17.098;2022-11-20T07:39:15;99373.97;;;7.09
42197;BMP280;27866;48.146;17.098;2022-11-20T07:43:27;99365.41;;;7.08
42197;BMP280;27866;48.146;17.098;2022-11-20T07:47:38;99383.88;;;7.15
42197;BMP280;27866;48.146;17.098;2022-11-20T07:51:52;99375.41;;;7.40
42197;BMP280;27866;48.146;17.098;2022-11-20T07:56:05;99369.16;;;7.44
42197;BMP280;27866;48.146;17.098;2022-11-20T08:00:16;99375.22;;;7.43
42197;BMP280;27866;48.146;17.098;2022-11-20T08:04:27;99384.50;;;7.45
42197;BMP280;27866;48.146;17.098;2022-11-20T08:08:38;99384.13;;;7.51
42197;BMP280;27866;48.146;17.098;2022-11-20T08:12:51;99379.34;;;7.45
42197;BMP280;27866;48.146;17.098;2022-11-20T08:17:21;99380.91;;;7.48
42197;BMP280;27866;48.146;17.098;2022-11-20T08:21:33;99387.81;;;7.47
42197;BMP280;27866;48.146;17.098;2022-11-20T08:25:49;99381.28;;;7.42
42197;BMP280;27866;48.146;17.098;2022-11-20T08:30:00;99384.03;;;7.39
42197;BMP280;27866;48.146;17.098;2022-11-20T08:34:12;99382.94;;;7.43
42197;BMP280;27866;48.146;17.098;2022-11-20T08:38:26;99375.53;;;7.64
42197;BMP280;27866;48.146;17.098;2022-11-20T08:42:45;99376.75;;;7.98
42197;BMP280;27866;48.146;17.098;2022-11-20T08:46:56;99383.34;;;8.02
42197;BMP280;27866;48.146;17.098;2022-11-20T08:51:08;99373.66;;;8.05
42197;BMP280;27866;48.146;17.098;2022-11-20T08:55:19;99369.81;;;8.24
42197;BMP280;27866;48.146;17.098;2022-11-20T08:59:30;99369.91;;;8.23
42197;BMP280;27866;48.146;17.098;2022-11-20T09:03:41;99361.63;;;7.92
42197;BMP280;27866;48.146;17.098;2022-11-20T09:07:59;99368.63;;;7.90
42197;BMP280;27866;48.146;17.098;2022-11-20T09:12:10;99371.94;;;8.55
42197;BMP280;27866;48.146;17.098;2022-11-20T09:16:21;99372.34;;;8.98
42197;BMP280;27866;48.146;17.098;2022-11-20T09:20:32;99379.69;;;9.16
42197;BMP280;27866;48.146;17.098;2022-11-20T09:24:44;99373.03;;;9.48
42197;BMP280;27866;48.146;17.098;2022-11-20T09:28:55;99352.03;;;10.10
42197;BMP280;27866;48.146;17.098;2022-11-20T09:33:06;99347.63;;;10.77
42197;BMP280;27866;48.146;17.098;2022-11-20T09:37:17;99346.25;;;10.95
42197;BMP280;27866;48.146;17.098;2022-11-20T09:50:43;99344.25;;;10.87
42197;BMP280;27866;48.146;17.098;2022-11-20T09:55:02;99331.53;;;11.16
42197;BMP280;27866;48.146;17.098;2022-11-20T10:04:16;99342.41;;;10.56
42197;BMP280;27866;48.146;17.098;2022-11-20T10:13:52;99344.16;;;9.89
42197;BMP280;27866;48.146;17.098;2022-11-20T10:33:19;99345.50;;;8.88
42197;BMP280;27866;48.146;17.098;2022-11-20T10:37:34;99345.50;;;9.00
42197;BMP280;27866;48.146;17.098;2022-11-20T10:41:51;99340.13;;;9.15
42197;BMP280;27866;48.146;17.098;2022-11-20T10:46:10;99330.69;;;9.26
42197;BMP280;27866;48.146;17.098;2022-11-20T10:50:23;99338.94;;;9.31
42197;BMP280;27866;48.146;17.098;2022-11-20T11:03:43;99321.22;;;9.15
42197;BMP280;27866;48.146;17.098;2022-11-20T11:07:56;99310.03;;;9.61
42197;BMP280;27866;48.146;17.098;2022-11-20T11:12:09;99300.81;;;9.92
42197;BMP280;27866;48.146;17.098;2022-11-20T11:16:24;99296.88;;;10.10
42197;BMP280;27866;48.146;17.098;2022-11-20T11:20:35;99309.38;;;9.93
42197;BMP280;27866;48.146;17.098;2022-11-20T11:24:53;99298.38;;;9.79
42197;BMP280;27866;48.146;17.098;2022-11-20T11:29:05;99292.81;;;10.18
42197;BMP280;27866;48.146;17.098;2022-11-20T11:33:31;99297.88;;;10.30
42197;BMP280;27866;48.146;17.098;2022-11-20T11:37:46;99292.03;;;10.05
42197;BMP280;27866;48.146;17.098;2022-11-20T11:42:00;99281.19;;;9.90
42197;BMP280;27866;48.146;17.098;2022-11-20T11:50:32;99276.50;;;9.72
42197;BMP280;27866;48.146;17.098;2022-11-20T11:54:56;99283.81;;;9.78
42197;BMP280;27866;48.146;17.098;2022-11-20T11:59:12;99281.41;;;9.98
42197;BMP280;27866;48.146;17.098;2022-11-20T12:03:36;99283.34;;;10.06
42197;BMP280;27866;48.146;17.098;2022-11-20T12:12:24;99288.28;;;10.43
42197;BMP280;27866;48.146;17.098;2022-11-20T12:16:39;99274.84;;;10.38
42197;BMP280;27866;48.146;17.098;2022-11-20T12:21:28;99278.06;;;10.52
42197;BMP280;27866;48.146;17.098;2022-11-20T12:25:37;99279.09;;;10.49
42197;BMP280;27866;48.146;17.098;2022-11-20T12:30:10;99276.06;;;10.44
42197;BMP280;27866;48.146;17.098;2022-11-20T12:43:33;99270.66;;;10.69
42197;BMP280;27866;48.146;17.098;2022-11-20T12:53:31;99263.25;;;10.54
42197;BMP280;27866;48.146;17.098;2022-11-20T13:07:12;99249.94;;;10.69
42197;BMP280;27866;48.146;17.098;2022-11-20T13:16:20;99238.59;;;11.44
42197;BMP280;27866;48.146;17.098;2022-11-20T13:20:33;99241.34;;;11.21
42197;BMP280;27866;48.146;17.098;2022-11-20T13:24:51;99238.84;;;11.20
42197;BMP280;27866;48.146;17.098;2022-11-20T13:29:11;99238.38;;;10.94
42197;BMP280;27866;48.146;17.098;2022-11-20T13:37:44;99239.53;;;10.26
42197;BMP280;27866;48.146;17.098;2022-11-20T13:42:01;99225.34;;;10.63
42197;BMP280;27866;48.146;17.098;2022-11-20T13:46:13;99223.81;;;10.93
42197;BMP280;27866;48.146;17.098;2022-11-20T13:55:23;99212.00;;;11.10
42197;BMP280;27866;48.146;17.098;2022-11-20T14:04:09;99217.22;;;10.89
42197;BMP280;27866;48.146;17.098;2022-11-20T14:08:41;99213.47;;;10.71
42197;BMP280;27866;48.146;17.098;2022-11-20T14:12:55;99215.81;;;10.64
42197;BMP280;27866;48.146;17.098;2022-11-20T14:17:23;99215.00;;;10.42
42197;BMP280;27866;48.146;17.098;2022-11-20T14:21:36;99205.97;;;10.03
42197;BMP280;27866;48.146;17.098;2022-11-20T14:25:47;99214.03;;;9.88
42197;BMP280;27866;48.146;17.098;2022-11-20T14:30:01;99207.81;;;9.80
42197;BMP280;27866;48.146;17.098;2022-11-20T14:34:33;99211.69;;;9.85
42197;BMP280;27866;48.146;17.098;2022-11-20T14:38:48;99213.78;;;9.81
42197;BMP280;27866;48.146;17.098;2022-11-20T14:42:59;99205.13;;;9.69
42197;BMP280;27866;48.146;17.098;2022-11-20T14:47:13;99197.47;;;9.57
42197;BMP280;27866;48.146;17.098;2022-11-20T14:51:33;99187.94;;;9.35
42197;BMP280;27866;48.146;17.098;2022-11-20T14:55:44;99189.09;;;9.09
42197;BMP280;27866;48.146;17.098;2022-11-20T15:04:24;99199.50;;;8.97
42197;BMP280;27866;48.146;17.098;2022-11-20T15:08:36;99199.31;;;8.87
42197;BMP280;27866;48.146;17.098;2022-11-20T15:12:57;99200.56;;;8.82
42197;BMP280;27866;48.146;17.098;2022-11-20T15:17:11;99192.53;;;8.74
42197;BMP280;27866;48.146;17.098;2022-11-20T15:21:23;99200.19;;;8.64
42197;BMP280;27866;48.146;17.098;2022-11-20T15:25:34;99192.97;;;8.56
42197;BMP280;27866;48.146;17.098;2022-11-20T15:29:45;99193.81;;;8.45
42197;BMP280;27866;48.146;17.098;2022-11-20T15:33:56;99203.94;;;8.36
42197;BMP280;27866;48.146;17.098;2022-11-20T15:38:08;99202.41;;;8.21
42197;BMP280;27866;48.146;17.098;2022-11-20T15:42:19;99206.63;;;7.98
42197;BMP280;27866;48.146;17.098;2022-11-20T15:46:33;99201.91;;;7.79
42197;BMP280;27866;48.146;17.098;2022-11-20T15:55:21;99208.53;;;7.45
42197;BMP280;27866;48.146;17.098;2022-11-20T15:59:32;99201.06;;;7.28
42197;BMP280;27866;48.146;17.098;2022-11-20T16:03:43;99204.31;;;7.18
42197;BMP280;27866;48.146;17.098;2022-11-20T16:07:54;99194.34;;;7.14
42197;BMP280;27866;48.146;17.098;2022-11-20T16:12:09;99203.06;;;7.11
42197;BMP280;27866;48.146;17.098;2022-11-20T16:16:40;99197.84;;;6.99
42197;BMP280;27866;48.146;17.098;2022-11-20T16:20:54;99203.88;;;6.86
42197;BMP280;27866;48.146;17.098;2022-11-20T16:25:06;99213.19;;;6.75
42197;BMP280;27866;48.146;17.098;2022-11-20T16:29:18;99218.97;;;6.65
42197;BMP280;27866;48.146;17.098;2022-11-20T16:33:29;99222.56;;;6.63
42197;BMP280;27866;48.146;17.098;2022-11-20T16:37:40;99229.72;;;6.58
42197;BMP280;27866;48.146;17.098;2022-11-20T16:41:52;99234.88;;;6.58
42197;BMP280;27866;48.146;17.098;2022-11-20T16:46:03;99243.94;;;6.77
42197;BMP280;27866;48.146;17.098;2022-11-20T16:50:15;99231.88;;;6.91
42197;BMP280;27866;48.146;17.098;2022-11-20T16:54:26;99235.16;;;7.06
42197;BMP280;27866;48.146;17.098;2022-11-20T16:58:37;99236.06;;;7.05
42197;BMP280;27866;48.146;17.098;2022-11-20T17:02:48;99219.03;;;6.91
42197;BMP280;27866;48.146;17.098;2022-11-20T17:06:59;99226.19;;;6.86
42197;BMP280;27866;48.146;17.098;2022-11-20T17:11:16;99222.16;;;6.82
42197;BMP280;27866;48.146;17.098;2022-11-20T17:15:27;99223.47;;;6.75
42197;BMP280;27866;48.146;17.098;2022-11-20T17:19:39;99211.34;;;6.64
42197;BMP280;27866;48.146;17.098;2022-11-20T17:23:50;99215.75;;;6.62
42197;BMP280;27866;48.146;17.098;2022-11-20T17:28:01;99219.78;;;6.65
42197;BMP280;27866;48.146;17.098;2022-11-20T17:32:12;99203.44;;;6.80
42197;BMP280;27866;48.146;17.098;2022-11-20T17:36:23;99210.34;;;7.05
42197;BMP280;27866;48.146;17.098;2022-11-20T17:40:34;99210.41;;;7.17
42197;BMP280;27866;48.146;17.098;2022-11-20T17:44:45;99207.78;;;7.31
42197;BMP280;27866;48.146;17.098;2022-11-20T17:48:58;99209.13;;;7.36
42197;BMP280;27866;48.146;17.098;2022-11-20T17:53:10;99205.00;;;7.34
42197;BMP280;27866;48.146;17.098;2022-11-20T17:57:22;99203.53;;;7.18
42197;BMP280;27866;48.146;17.098;2022-11-20T18:01:52;99191.81;;;7.00
42197;BMP280;27866;48.146;17.098;2022-11-20T18:06:17;99196.03;;;6.88
42197;BMP280;27866;48.146;17.098;2022-11-20T18:10:29;99184.13;;;6.87
42197;BMP280;27866;48.146;17.098;2022-11-20T18:14:42;99176.88;;;7.05
42197;BMP280;27866;48.146;17.098;2022-11-20T18:18:55;99184.56;;;7.19
42197;BMP280;27866;48.146;17.098;2022-11-20T18:23:06;99179.88;;;7.37
42197;BMP280;27866;48.146;17.098;2022-11-20T18:27:19;99166.75;;;7.53
42197;BMP280;27866;48.146;17.098;2022-11-20T18:31:31;99163.59;;;7.74
42197;BMP280;27866;48.146;17.098;2022-11-20T18:35:42;99147.81;;;7.79
42197;BMP280;27866;48.146;17.098;2022-11-20T18:39:53;99133.25;;;7.90
42197;BMP280;27866;48.146;17.098;2022-11-20T18:44:13;99131.97;;;7.96
42197;BMP280;27866;48.146;17.098;2022-11-20T18:48:42;99135.66;;;8.05
42197;BMP280;27866;48.146;17.098;2022-11-20T18:52:54;99123.31;;;8.10
42197;BMP280;27866;48.146;17.098;2022-11-20T18:57:05;99110.41;;;8.10
42197;BMP280;27866;48.146;17.098;2022-11-20T19:01:16;99115.94;;;7.92
42197;BMP280;27866;48.146;17.098;2022-11-20T19:05:27;99121.94;;;7.68
42197;BMP280;27866;48.146;17.098;2022-11-20T19:09:44;99124.81;;;7.52
42197;BMP280;27866;48.146;17.098;2022-11-20T19:13:55;99133.75;;;7.46
42197;BMP280;27866;48.146;17.098;2022-11-20T19:18:06;99148.56;;;7.43
42197;BMP280;27866;48.146;17.098;2022-11-20T19:22:18;99139.72;;;7.47
42197;BMP280;27866;48.146;17.098;2022-11-20T19:26:29;99136.16;;;7.61
42197;BMP280;27866;48.146;17.098;2022-11-20T19:30:42;99139.03;;;7.69
42197;BMP280;27866;48.146;17.098;2022-11-20T19:34:53;99136.78;;;7.77
42197;BMP280;27866;48.146;17.098;2022-11-20T19:39:06;99139.13;;;7.92
42197;BMP280;27866;48.146;17.098;2022-11-20T19:43:18;99141.34;;;7.97
42197;BMP280;27866;48.146;17.098;2022-11-20T19:47:30;99145.97;;;8.05
42197;BMP280;27866;48.146;17.098;2022-11-20T19:51:48;99150.22;;;8.18
42197;BMP280;27866;48.146;17.098;2022-11-20T19:56:00;99150.00;;;8.33
42197;BMP280;27866;48.146;17.098;2022-11-20T20:00:12;99141.63;;;8.41
42197;BMP280;27866;48.146;17.098;2022-11-20T20:04:24;99137.28;;;8.42
42197;BMP280;27866;48.146;17.098;2022-11-20T20:08:36;99153.47;;;8.44
42197;BMP280;27866;48.146;17.098;2022-11-20T20:12:47;99156.06;;;8.32
42197;BMP280;27866;48.146;17.098;2022-11-20T20:16:59;99156.00;;;8.21
42197;BMP280;27866;48.146;17.098;2022-11-20T20:21:12;99163.72;;;8.21
42197;BMP280;27866;48.146;17.098;2022-11-20T20:25:24;99167.34;;;8.31
42197;BMP280;27866;48.146;17.098;2022-11-20T20:29:35;99169.91;;;8.31
42197;BMP280;27866;48.146;17.098;2022-11-20T20:33:46;99167.03;;;8.23
42197;BMP280;27866;48.146;17.098;2022-11-20T20:37:57;99172.38;;;8.32
42197;BMP280;27866;48.146;17.098;2022-11-20T20:42:08;99167.75;;;8.25
42197;BMP280;27866;48.146;17.098;2022-11-20T20:46:20;99167.53;;;8.28
42197;BMP280;27866;48.146;17.098;2022-11-20T20:50:31;99154.75;;;8.39
42197;BMP280;27866;48.146;17.098;2022-11-20T20:54:42;99151.22;;;8.39
42197;BMP280;27866;48.146;17.098;2022-11-20T20:58:53;99153.59;;;8.18
42197;BMP280;27866;48.146;17.098;2022-11-20T21:03:04;99140.63;;;7.96
42197;BMP280;27866;48.146;17.098;2022-11-20T21:07:16;99146.25;;;7.88
42197;BMP280;27866;48.146;17.098;2022-11-20T21:11:27;99147.00;;;8.14
42197;BMP280;27866;48.146;17.098;2022-11-20T21:15:39;99158.34;;;8.24
42197;BMP280;27866;48.146;17.098;2022-11-20T21:19:51;99154.84;;;8.13
42197;BMP280;27866;48.146;17.098;2022-11-20T21:24:02;99146.81;;;8.17
42197;BMP280;27866;48.146;17.098;2022-11-20T21:28:13;99145.16;;;8.28
42197;BMP280;27866;48.146;17.098;2022-11-20T21:32:25;99150.50;;;8.38
42197;BMP280;27866;48.146;17.098;2022-11-20T21:36:36;99146.16;;;8.38
42197;BMP280;27866;48.146;17.098;2022-11-20T21:40:47;99150.59;;;8.36
42197;BMP280;27866;48.146;17.098;2022-11-20T21:44:58;99148.56;;;8.29
42197;BMP280;27866;48.146;17.098;2022-11-20T21:49:10;99142.50;;;8.18
42197;BMP280;27866;48.146;17.098;2022-11-20T21:53:21;99138.84;;;8.20
42197;BMP280;27866;48.146;17.098;2022-11-20T21:57:33;99143.41;;;8.29
42197;BMP280;27866;48.146;17.098;2022-11-20T22:01:45;99138.56;;;8.25
42197;BMP280;27866;48.146;17.098;2022-11-20T22:05:57;99134.66;;;8.19
42197;BMP280;27866;48.146;17.098;2022-11-20T22:10:09;99148.56;;;8.17
42197;BMP280;27866;48.146;17.098;2022-11-20T22:14:20;99141.84;;;8.14
42197;BMP280;27866;48.146;17.098;2022-11-20T22:18:31;99135.03;;;8.25
42197;BMP280;27866;48.146;17.098;2022-11-20T22:22:42;99140.09;;;8.27
42197;BMP280;27866;48.146;17.098;2022-11-20T22:26:53;99135.47;;;8.20
42197;BMP280;27866;48.146;17.098;2022-11-20T22:31:08;99140.94;;;8.15
42197;BMP280;27866;48.146;17.098;2022-11-20T22:35:19;99134.84;;;8.16
42197;BMP280;27866;48.146;17.098;2022-11-20T22:39:30;99137.34;;;8.06
42197;BMP280;27866;48.146;17.098;2022-11-20T22:43:43;99140.63;;;7.96
42197;BMP280;27866;48.146;17.098;2022-11-20T22:47:54;99128.88;;;8.04
42197;BMP280;27866;48.146;17.098;2022-11-20T22:52:05;99136.59;;;8.04
42197;BMP280;27866;48.146;17.098;2022-11-20T22:56:17;99136.91;;;8.11
42197;BMP280;27866;48.146;17.098;2022-11-20T23:00:28;99134.88;;;8.04
42197;BMP280;27866;48.146;17.098;2022-11-20T23:04:42;99138.25;;;7.93
42197;BMP280;27866;48.146;17.098;2022-11-20T23:08:53;99130.91;;;7.87
42197;BMP280;27866;48.146;17.098;2022-11-20T23:13:05;99122.47;;;7.85
42197;BMP280;27866;48.146;17.098;2022-11-20T23:17:16;99117.53;;;7.82
42197;BMP280;27866;48.146;17.098;2022-11-20T23:21:27;99106.16;;;7.84
42197;BMP280;27866;48.146;17.098;2022-11-20T23:25:38;99086.88;;;7.90
42197;BMP280;27866;48.146;17.098;2022-11-20T23:29:49;99087.44;;;7.95
42197;BMP280;27866;48.146;17.098;2022-11-20T23:34:00;99083.28;;;7.92
42197;BMP280;27866;48.146;17.098;2022-11-20T23:38:12;99074.25;;;7.99
42197;BMP280;27866;48.146;17.098;2022-11-20T23:42:23;99065.88;;;8.08
42197;BMP280;27866;48.146;17.098;2022-11-20T23:46:34;99060.19;;;8.15
42197;BMP280;27866;48.146;17.098;2022-11-20T23:50:45;99051.13;;;8.10
42197;BMP280;27866;48.146;17.098;2022-11-20T23:54:56;99051.22;;;8.08
42197;BMP280;27866;48.146;17.098;2022-11-20T23:59:08;99044.75;;;8.03
